createdAt,value
2019-01-24T00:03:43.485Z,55.27
2019-01-24T00:09:49.497Z,51.90
2019-01-24T00:15:55.222Z,51.27
2019-01-24T00:22:01.135Z,56.80
2019-01-24T00:28:25.936Z,51.07
2019-01-24T00:34:31.837Z,51.83
2019-01-24T00:40:37.580Z,52.10
2019-01-24T00:46:43.377Z,55.40
2019-01-24T00:52:49.372Z,59.27
2019-01-24T00:58:55.101Z,52.93
2019-01-24T01:05:00.796Z,55.70
2019-01-24T01:11:06.933Z,54.40
2019-01-24T01:17:13.424Z,60.17
2019-01-24T01:23:19.820Z,57.87
2019-01-24T01:29:25.688Z,60.20
2019-01-24T01:35:31.428Z,63.47
2019-01-24T01:41:37.191Z,57.07
2019-01-24T01:47:42.914Z,60.87
2019-01-24T01:53:48.644Z,57.37
2019-01-24T01:59:54.546Z,59.10
2019-01-24T02:06:00.390Z,57.33
2019-01-24T02:12:06.184Z,60.63
2019-01-24T02:18:12.073Z,56.37
2019-01-24T02:24:18.193Z,60.00
2019-01-24T02:30:27.158Z,61.13
2019-01-24T02:36:33.668Z,57.87
2019-01-24T02:42:40.667Z,62.10
2019-01-24T02:48:46.432Z,67.93
2019-01-24T02:54:52.323Z,59.57
2019-01-24T03:00:58.050Z,64.93
2019-01-24T03:07:03.860Z,57.17
2019-01-24T03:13:09.567Z,61.90
2019-01-24T03:19:16.473Z,62.27
2019-01-24T03:25:22.507Z,62.90
2019-01-24T03:31:28.324Z,58.30
2019-01-24T03:37:34.395Z,62.13
2019-01-24T03:43:40.282Z,61.53
2019-01-24T03:49:46.119Z,61.53
2019-01-24T03:55:52.303Z,61.23
2019-01-24T04:01:58.393Z,61.77
2019-01-24T04:08:04.180Z,66.07
2019-01-24T04:14:10.146Z,64.37
2019-01-24T04:20:16.977Z,70.93
2019-01-24T04:26:23.072Z,60.50
2019-01-24T04:32:29.500Z,65.43
2019-01-24T04:38:35.666Z,65.70
2019-01-24T04:44:41.551Z,57.33
2019-01-24T04:50:47.294Z,63.87
2019-01-24T04:56:53.254Z,66.80
2019-01-24T05:02:59.306Z,66.47
2019-01-24T05:09:07.923Z,69.33
2019-01-24T05:15:14.108Z,60.60
2019-01-24T05:21:19.797Z,66.87
2019-01-24T05:27:25.766Z,65.67
2019-01-24T05:33:31.781Z,75.20
2019-01-24T05:39:37.771Z,64.97
2019-01-24T05:45:43.515Z,66.23
2019-01-24T05:51:49.391Z,71.50
2019-01-24T05:57:55.307Z,66.03
2019-01-24T06:04:01.114Z,69.97
2019-01-24T06:10:11.765Z,67.07
2019-01-24T06:16:17.753Z,69.87
2019-01-24T06:22:23.809Z,65.30
2019-01-24T06:28:29.715Z,70.37
2019-01-24T06:34:35.969Z,66.27
2019-01-24T06:40:41.844Z,65.90
2019-01-24T06:46:48.231Z,66.50
2019-01-24T06:52:54.117Z,65.47
2019-01-24T06:58:59.844Z,69.63
2019-01-24T07:05:06.174Z,61.80
2019-01-24T07:11:11.981Z,65.13
2019-01-24T07:17:17.772Z,69.10
2019-01-24T07:23:23.518Z,63.90
2019-01-24T07:29:31.171Z,64.03
2019-01-24T07:35:37.180Z,66.00
2019-01-24T07:41:43.190Z,72.10
2019-01-24T07:47:49.084Z,67.90
2019-01-24T07:53:56.051Z,69.23
2019-01-24T08:00:03.976Z,65.50
2019-01-24T08:06:09.746Z,65.10
2019-01-24T08:12:15.711Z,67.73
2019-01-24T08:18:21.593Z,67.90
2019-01-24T08:24:27.603Z,65.67
2019-01-24T08:30:34.875Z,63.13
2019-01-24T08:36:40.608Z,68.40
2019-01-24T08:42:47.276Z,68.80
2019-01-24T08:48:53.388Z,66.77
2019-01-24T08:54:59.365Z,69.57
2019-01-24T09:01:06.744Z,73.73
2019-01-24T09:07:12.917Z,70.20
2019-01-24T09:13:19.109Z,70.57
2019-01-24T09:19:25.121Z,70.27
2019-01-24T09:25:30.990Z,71.47
2019-01-24T09:31:37.273Z,66.67
2019-01-24T09:37:43.319Z,70.17
2019-01-24T09:43:49.262Z,69.33
2019-01-24T09:49:55.422Z,70.63
2019-01-24T09:56:01.260Z,66.50
2019-01-24T10:02:07.549Z,72.87
2019-01-24T10:08:16.338Z,67.17
2019-01-24T10:14:24.228Z,66.87
2019-01-24T10:20:30.587Z,66.53
2019-01-24T10:26:42.572Z,69.13
2019-01-24T10:32:49.335Z,69.63
2019-01-24T10:38:55.929Z,75.03
2019-01-24T10:45:01.804Z,68.00
2019-01-24T10:51:07.861Z,71.57
2019-01-24T10:57:13.818Z,73.10
2019-01-24T11:03:20.857Z,71.67
2019-01-24T11:09:26.850Z,74.37
2019-01-24T11:15:39.130Z,75.00
2019-01-24T11:21:45.133Z,74.07
2019-01-24T11:27:53.445Z,71.37
2019-01-24T11:33:59.495Z,75.40
2019-01-24T11:40:06.475Z,76.20
2019-01-24T11:46:13.774Z,70.27
2019-01-24T11:52:19.631Z,70.67
2019-01-24T11:58:26.775Z,76.67
2019-01-24T12:04:32.642Z,72.00
2019-01-24T12:10:38.365Z,66.97
2019-01-24T12:16:45.964Z,70.93
2019-01-24T12:22:51.751Z,74.43
2019-01-24T12:28:57.784Z,72.53
2019-01-24T12:35:03.799Z,75.90
2019-01-24T12:41:09.811Z,77.77
2019-01-24T12:47:15.514Z,77.10
2019-01-24T12:53:21.505Z,77.80
2019-01-24T12:59:27.342Z,86.43
2019-01-24T13:05:33.586Z,85.17
2019-01-24T13:11:39.541Z,92.67
2019-01-24T13:17:45.676Z,100.43
2019-01-24T13:23:51.433Z,101.37
2019-01-24T13:29:57.187Z,100.20
2019-01-24T13:36:06.187Z,105.03
2019-01-24T13:42:12.197Z,106.67
2019-01-24T13:48:18.143Z,105.17
2019-01-24T13:54:26.479Z,103.33
2019-01-24T14:00:38.490Z,109.37
2019-01-24T14:06:47.655Z,108.93
2019-01-24T14:12:52.920Z,95.33
2019-01-24T14:18:58.931Z,98.87
2019-01-24T14:25:05.517Z,85.00
2019-01-24T14:31:11.486Z,88.30
2019-01-24T14:37:17.737Z,92.50
2019-01-24T14:43:25.155Z,91.60
2019-01-24T14:49:30.908Z,85.57
2019-01-24T14:55:36.847Z,85.77
2019-01-24T15:01:43.765Z,85.77
2019-01-24T15:07:49.606Z,88.77
2019-01-24T15:13:55.378Z,89.57
2019-01-24T15:20:01.091Z,87.23
2019-01-24T15:26:06.955Z,87.70
2019-01-24T15:32:12.734Z,85.90
2019-01-24T15:38:18.555Z,86.00
2019-01-24T15:44:24.520Z,89.37
2019-01-24T15:50:30.369Z,89.00
2019-01-24T15:56:36.070Z,83.97
2019-01-24T16:02:43.451Z,86.37
2019-01-24T16:08:49.349Z,83.67
2019-01-24T16:14:55.299Z,81.67
2019-01-24T16:21:01.104Z,79.60
2019-01-24T16:27:06.985Z,84.40
2019-01-24T16:33:12.732Z,79.53
2019-01-24T16:39:18.559Z,78.23
2019-01-24T16:45:26.689Z,84.80
2019-01-24T16:51:32.415Z,81.10
2019-01-24T16:57:38.206Z,82.03
2019-01-24T17:03:44.027Z,79.97
2019-01-24T17:09:49.907Z,81.47
2019-01-24T17:15:55.595Z,86.97
2019-01-24T17:22:01.476Z,83.40
2019-01-24T17:28:07.634Z,79.73
2019-01-24T17:34:13.494Z,80.10
2019-01-24T17:40:28.082Z,75.53
2019-01-24T17:46:33.948Z,79.43
2019-01-24T17:52:39.697Z,79.60
2019-01-24T17:58:45.442Z,79.63
2019-01-24T18:04:51.287Z,82.20
2019-01-24T18:10:57.407Z,88.80
2019-01-24T18:17:03.233Z,82.27
2019-01-24T18:23:09.307Z,79.47
2019-01-24T18:29:15.207Z,80.90
2019-01-24T18:35:21.600Z,80.27
2019-01-24T18:41:27.444Z,77.07
2019-01-24T18:47:33.381Z,80.03
2019-01-24T18:53:39.323Z,80.87
2019-01-24T18:59:47.021Z,80.37
2019-01-24T19:05:53.299Z,78.77
2019-01-24T19:11:59.403Z,78.13
2019-01-24T19:18:07.327Z,82.90
2019-01-24T19:24:13.596Z,79.33
2019-01-24T19:30:26.650Z,80.30
2019-01-24T19:36:32.565Z,80.70
2019-01-24T19:42:38.603Z,82.60
2019-01-24T19:48:45.523Z,84.73
2019-01-24T19:54:51.914Z,83.23
2019-01-24T20:00:58.089Z,81.53
2019-01-24T20:07:04.052Z,76.90
2019-01-24T20:13:10.303Z,73.30
2019-01-24T20:19:16.236Z,78.03
2019-01-24T20:25:25.384Z,77.53
2019-01-24T20:31:32.961Z,75.43
2019-01-24T20:37:38.821Z,81.07
2019-01-24T20:43:44.656Z,78.13
2019-01-24T20:49:51.810Z,83.23
2019-01-24T20:55:57.727Z,80.97
2019-01-24T21:02:03.648Z,81.37
2019-01-24T21:08:10.090Z,75.13
2019-01-24T21:14:16.355Z,79.70
2019-01-24T21:20:24.921Z,78.60
2019-01-24T21:26:33.019Z,80.67
2019-01-24T21:32:39.000Z,84.37
2019-01-24T21:38:45.350Z,89.27
2019-01-24T21:44:51.198Z,80.83
2019-01-24T21:50:57.604Z,84.27
2019-01-24T21:57:03.700Z,85.17
2019-01-24T22:03:09.607Z,86.67
2019-01-24T22:09:15.477Z,78.93
2019-01-24T22:15:24.637Z,84.80
2019-01-24T22:21:30.466Z,83.37
2019-01-24T22:27:36.586Z,89.07
2019-01-24T22:33:42.663Z,85.97
2019-01-24T22:39:48.420Z,85.33
2019-01-24T22:45:54.504Z,106.80
2019-01-24T22:52:00.558Z,100.97
2019-01-24T22:58:07.847Z,93.90
2019-01-24T23:04:20.479Z,95.20
2019-01-24T23:10:26.218Z,99.10
2019-01-24T23:16:32.093Z,108.90
2019-01-24T23:22:38.169Z,92.90
2019-01-24T23:28:43.921Z,94.27
2019-01-24T23:34:49.990Z,96.93
2019-01-24T23:40:55.784Z,97.80
2019-01-24T23:47:01.625Z,101.17
2019-01-24T23:53:07.788Z,96.73
2019-01-24T23:59:13.706Z,92.40
